sensor_id;sensor_type;location;lat;lon;timestamp;P1;durP1;ratioP1;P2;durP2;ratioP2
21647;SDS011;10985;54.182;7.890;2023-03-01T00:00:36;48.90;;;22.52;;
21647;SDS011;10985;54.182;7.890;2023-03-01T00:03:02;47.88;;;23.20;;
21647;SDS011;10985;54.182;7.890;2023-03-01T00:05:27;39.33;;;24.52;;
21647;SDS011;10985;54.182;7.890;2023-03-01T00:07:53;52.25;;;27.08;;
21647;SDS011;10985;54.182;7.890;2023-03-01T00:10:18;51.15;;;26.88;;
21647;SDS011;10985;54.182;7.890;2023-03-01T00:12:44;46.78;;;26.35;;
21647;SDS011;10985;54.182;7.890;2023-03-01T00:15:09;45.85;;;26.85;;
21647;SDS011;10985;54.182;7.890;2023-03-01T00:17:36;48.70;;;25.52;;
21647;SDS011;10985;54.182;7.890;2023-03-01T00:20:02;50.08;;;26.88;;
21647;SDS011;10985;54.182;7.890;2023-03-01T00:22:28;50.38;;;29.58;;
21647;SDS011;10985;54.182;7.890;2023-03-01T00:24:53;45.92;;;28.00;;
21647;SDS011;10985;54.182;7.890;2023-03-01T00:27:19;49.42;;;26.95;;
21647;SDS011;10985;54.182;7.890;2023-03-01T00:29:44;51.00;;;25.92;;
21647;SDS011;10985;54.182;7.890;2023-03-01T00:32:10;56.55;;;27.02;;
21647;SDS011;10985;54.182;7.890;2023-03-01T00:34:35;40.28;;;25.27;;
21647;SDS011;10985;54.182;7.890;2023-03-01T00:37:01;51.00;;;26.08;;
21647;SDS011;10985;54.182;7.890;2023-03-01T00:39:30;45.45;;;26.05;;
21647;SDS011;10985;54.182;7.890;2023-03-01T00:41:57;45.55;;;24.00;;
21647;SDS011;10985;54.182;7.890;2023-03-01T00:44:22;46.60;;;25.92;;
21647;SDS011;10985;54.182;7.890;2023-03-01T00:46:48;59.30;;;27.23;;
21647;SDS011;10985;54.182;7.890;2023-03-01T00:49:13;52.00;;;26.52;;
21647;SDS011;10985;54.182;7.890;2023-03-01T00:51:39;50.60;;;28.45;;
21647;SDS011;10985;54.182;7.890;2023-03-01T00:54:07;53.45;;;29.00;;
21647;SDS011;10985;54.182;7.890;2023-03-01T00:56:34;48.33;;;27.25;;
21647;SDS011;10985;54.182;7.890;2023-03-01T00:58:59;47.80;;;23.38;;
21647;SDS011;10985;54.182;7.890;2023-03-01T01:01:26;50.05;;;27.23;;
21647;SDS011;10985;54.182;7.890;2023-03-01T01:03:57;47.83;;;27.58;;
21647;SDS011;10985;54.182;7.890;2023-03-01T01:06:32;51.30;;;27.38;;
21647;SDS011;10985;54.182;7.890;2023-03-01T01:09:00;44.30;;;25.40;;
21647;SDS011;10985;54.182;7.890;2023-03-01T01:11:28;50.53;;;25.25;;
21647;SDS011;10985;54.182;7.890;2023-03-01T01:13:54;48.42;;;26.80;;
21647;SDS011;10985;54.182;7.890;2023-03-01T01:16:21;50.58;;;27.50;;
21647;SDS011;10985;54.182;7.890;2023-03-01T01:18:47;55.28;;;25.63;;
21647;SDS011;10985;54.182;7.890;2023-03-01T01:21:14;46.25;;;23.50;;
21647;SDS011;10985;54.182;7.890;2023-03-01T01:23:42;50.63;;;26.42;;
21647;SDS011;10985;54.182;7.890;2023-03-01T01:26:30;45.20;;;25.20;;
21647;SDS011;10985;54.182;7.890;2023-03-01T01:28:56;50.33;;;24.70;;
21647;SDS011;10985;54.182;7.890;2023-03-01T01:31:21;46.78;;;24.30;;
21647;SDS011;10985;54.182;7.890;2023-03-01T01:33:54;48.45;;;23.23;;
21647;SDS011;10985;54.182;7.890;2023-03-01T01:36:20;45.67;;;24.33;;
21647;SDS011;10985;54.182;7.890;2023-03-01T01:38:46;44.20;;;25.70;;
21647;SDS011;10985;54.182;7.890;2023-03-01T01:41:12;52.30;;;26.58;;
21647;SDS011;10985;54.182;7.890;2023-03-01T01:43:42;52.25;;;27.40;;
21647;SDS011;10985;54.182;7.890;2023-03-01T01:46:21;43.80;;;23.70;;
21647;SDS011;10985;54.182;7.890;2023-03-01T01:48:57;54.40;;;25.45;;
21647;SDS011;10985;54.182;7.890;2023-03-01T01:51:27;52.60;;;25.17;;
21647;SDS011;10985;54.182;7.890;2023-03-01T01:54:03;47.35;;;24.08;;
21647;SDS011;10985;54.182;7.890;2023-03-01T01:56:58;48.63;;;25.13;;
21647;SDS011;10985;54.182;7.890;2023-03-01T01:59:27;44.67;;;25.15;;
21647;SDS011;10985;54.182;7.890;2023-03-01T02:01:55;50.03;;;24.77;;
21647;SDS011;10985;54.182;7.890;2023-03-01T02:04:24;49.40;;;24.52;;
21647;SDS011;10985;54.182;7.890;2023-03-01T02:06:58;48.15;;;25.27;;
21647;SDS011;10985;54.182;7.890;2023-03-01T02:09:34;53.55;;;25.88;;
21647;SDS011;10985;54.182;7.890;2023-03-01T02:12:01;48.20;;;26.00;;
21647;SDS011;10985;54.182;7.890;2023-03-01T02:14:29;51.58;;;25.58;;
21647;SDS011;10985;54.182;7.890;2023-03-01T02:16:54;50.58;;;25.50;;
21647;SDS011;10985;54.182;7.890;2023-03-01T02:19:31;47.85;;;25.60;;
21647;SDS011;10985;54.182;7.890;2023-03-01T02:22:28;41.33;;;23.13;;
21647;SDS011;10985;54.182;7.890;2023-03-01T02:27:37;44.60;;;23.17;;
21647;SDS011;10985;54.182;7.890;2023-03-01T02:30:10;52.97;;;24.85;;
21647;SDS011;10985;54.182;7.890;2023-03-01T02:32:37;48.10;;;24.40;;
21647;SDS011;10985;54.182;7.890;2023-03-01T02:35:06;42.97;;;23.63;;
21647;SDS011;10985;54.182;7.890;2023-03-01T02:37:37;38.72;;;22.73;;
21647;SDS011;10985;54.182;7.890;2023-03-01T02:40:06;44.70;;;23.17;;
21647;SDS011;10985;54.182;7.890;2023-03-01T02:42:36;41.45;;;22.58;;
21647;SDS011;10985;54.182;7.890;2023-03-01T02:45:11;40.67;;;20.88;;
21647;SDS011;10985;54.182;7.890;2023-03-01T02:47:37;38.88;;;21.17;;
21647;SDS011;10985;54.182;7.890;2023-03-01T02:50:02;39.60;;;21.05;;
21647;SDS011;10985;54.182;7.890;2023-03-01T02:53:08;30.77;;;19.15;;
21647;SDS011;10985;54.182;7.890;2023-03-01T02:55:41;32.47;;;19.35;;
21647;SDS011;10985;54.182;7.890;2023-03-01T02:58:06;35.97;;;19.95;;
21647;SDS011;10985;54.182;7.890;2023-03-01T03:00:36;36.08;;;21.02;;
21647;SDS011;10985;54.182;7.890;2023-03-01T03:03:05;30.98;;;19.70;;
21647;SDS011;10985;54.182;7.890;2023-03-01T03:05:32;41.67;;;23.30;;
21647;SDS011;10985;54.182;7.890;2023-03-01T03:07:58;37.53;;;20.75;;
21647;SDS011;10985;54.182;7.890;2023-03-01T03:10:30;41.40;;;21.23;;
21647;SDS011;10985;54.182;7.890;2023-03-01T03:12:59;42.22;;;23.45;;
21647;SDS011;10985;54.182;7.890;2023-03-01T03:15:27;48.05;;;25.05;;
21647;SDS011;10985;54.182;7.890;2023-03-01T03:17:54;37.17;;;23.67;;
21647;SDS011;10985;54.182;7.890;2023-03-01T03:20:22;46.45;;;25.58;;
21647;SDS011;10985;54.182;7.890;2023-03-01T03:22:50;42.15;;;25.38;;
21647;SDS011;10985;54.182;7.890;2023-03-01T03:25:17;48.35;;;25.67;;
21647;SDS011;10985;54.182;7.890;2023-03-01T03:27:44;42.55;;;24.88;;
21647;SDS011;10985;54.182;7.890;2023-03-01T03:30:14;38.63;;;22.95;;
21647;SDS011;10985;54.182;7.890;2023-03-01T03:32:42;38.08;;;21.27;;
21647;SDS011;10985;54.182;7.890;2023-03-01T03:35:17;42.90;;;23.58;;
21647;SDS011;10985;54.182;7.890;2023-03-01T03:37:50;38.95;;;22.58;;
21647;SDS011;10985;54.182;7.890;2023-03-01T03:40:35;47.03;;;23.92;;
21647;SDS011;10985;54.182;7.890;2023-03-01T03:43:09;37.28;;;21.83;;
21647;SDS011;10985;54.182;7.890;2023-03-01T03:45:37;40.83;;;23.02;;
21647;SDS011;10985;54.182;7.890;2023-03-01T03:48:03;46.15;;;22.83;;
21647;SDS011;10985;54.182;7.890;2023-03-01T03:50:30;35.97;;;20.17;;
21647;SDS011;10985;54.182;7.890;2023-03-01T03:52:56;35.20;;;20.02;;
21647;SDS011;10985;54.182;7.890;2023-03-01T03:55:21;34.05;;;20.25;;
21647;SDS011;10985;54.182;7.890;2023-03-01T03:57:47;32.80;;;20.05;;
21647;SDS011;10985;54.182;7.890;2023-03-01T04:00:20;32.20;;;18.33;;
21647;SDS011;10985;54.182;7.890;2023-03-01T04:02:48;31.35;;;18.30;;
21647;SDS011;10985;54.182;7.890;2023-03-01T04:05:15;25.00;;;16.02;;
21647;SDS011;10985;54.182;7.890;2023-03-01T04:07:42;33.58;;;17.33;;
21647;SDS011;10985;54.182;7.890;2023-03-01T04:10:10;28.20;;;16.38;;
21647;SDS011;10985;54.182;7.890;2023-03-01T04:12:40;24.92;;;13.93;;
21647;SDS011;10985;54.182;7.890;2023-03-01T04:15:08;27.00;;;13.68;;
21647;SDS011;10985;54.182;7.890;2023-03-01T04:17:45;18.38;;;11.40;;
21647;SDS011;10985;54.182;7.890;2023-03-01T04:20:12;21.45;;;12.10;;
21647;SDS011;10985;54.182;7.890;2023-03-01T04:22:49;20.65;;;13.70;;
21647;SDS011;10985;54.182;7.890;2023-03-01T04:25:16;29.67;;;15.70;;
21647;SDS011;10985;54.182;7.890;2023-03-01T04:27:41;24.00;;;12.80;;
21647;SDS011;10985;54.182;7.890;2023-03-01T04:30:07;18.40;;;11.85;;
21647;SDS011;10985;54.182;7.890;2023-03-01T04:32:34;19.27;;;11.07;;
21647;SDS011;10985;54.182;7.890;2023-03-01T04:34:59;19.13;;;11.52;;
21647;SDS011;10985;54.182;7.890;2023-03-01T04:37:25;17.52;;;10.18;;
21647;SDS011;10985;54.182;7.890;2023-03-01T04:39:51;13.35;;;9.70;;
21647;SDS011;10985;54.182;7.890;2023-03-01T04:42:17;18.88;;;9.75;;
21647;SDS011;10985;54.182;7.890;2023-03-01T04:44:43;19.30;;;10.70;;
21647;SDS011;10985;54.182;7.890;2023-03-01T04:47:09;14.05;;;9.85;;
21647;SDS011;10985;54.182;7.890;2023-03-01T04:49:35;20.48;;;10.75;;
21647;SDS011;10985;54.182;7.890;2023-03-01T04:52:00;12.13;;;9.93;;
21647;SDS011;10985;54.182;7.890;2023-03-01T04:54:29;16.75;;;10.43;;
21647;SDS011;10985;54.182;7.890;2023-03-01T04:56:57;16.92;;;9.55;;
21647;SDS011;10985;54.182;7.890;2023-03-01T04:59:22;13.55;;;8.95;;
21647;SDS011;10985;54.182;7.890;2023-03-01T05:01:49;11.63;;;7.55;;
21647;SDS011;10985;54.182;7.890;2023-03-01T05:04:15;9.77;;;6.78;;
21647;SDS011;10985;54.182;7.890;2023-03-01T05:06:40;13.75;;;7.75;;
21647;SDS011;10985;54.182;7.890;2023-03-01T05:09:06;8.30;;;7.45;;
21647;SDS011;10985;54.182;7.890;2023-03-01T05:11:32;9.85;;;7.05;;
21647;SDS011;10985;54.182;7.890;2023-03-01T05:14:01;10.10;;;6.82;;
21647;SDS011;10985;54.182;7.890;2023-03-01T05:16:27;7.22;;;6.05;;
21647;SDS011;10985;54.182;7.890;2023-03-01T05:18:53;7.82;;;7.05;;
21647;SDS011;10985;54.182;7.890;2023-03-01T05:21:20;7.68;;;7.18;;
21647;SDS011;10985;54.182;7.890;2023-03-01T05:23:46;11.23;;;6.70;;
21647;SDS011;10985;54.182;7.890;2023-03-01T05:26:12;8.43;;;7.18;;
21647;SDS011;10985;54.182;7.890;2023-03-01T05:28:38;7.88;;;7.03;;
21647;SDS011;10985;54.182;7.890;2023-03-01T05:31:05;9.63;;;6.75;;
21647;SDS011;10985;54.182;7.890;2023-03-01T05:33:35;9.88;;;7.78;;
21647;SDS011;10985;54.182;7.890;2023-03-01T05:36:02;8.75;;;7.90;;
21647;SDS011;10985;54.182;7.890;2023-03-01T05:38:28;7.97;;;7.28;;
21647;SDS011;10985;54.182;7.890;2023-03-01T05:40:54;11.10;;;7.25;;
21647;SDS011;10985;54.182;7.890;2023-03-01T05:43:19;9.20;;;8.23;;
21647;SDS011;10985;54.182;7.890;2023-03-01T05:45:45;8.80;;;8.10;;
21647;SDS011;10985;54.182;7.890;2023-03-01T05:48:11;9.80;;;7.85;;
21647;SDS011;10985;54.182;7.890;2023-03-01T05:50:38;8.88;;;7.30;;
21647;SDS011;10985;54.182;7.890;2023-03-01T05:53:07;8.15;;;7.35;;
21647;SDS011;10985;54.182;7.890;2023-03-01T05:55:36;8.25;;;7.38;;
21647;SDS011;10985;54.182;7.890;2023-03-01T05:58:02;6.78;;;6.05;;
21647;SDS011;10985;54.182;7.890;2023-03-01T06:00:30;9.05;;;7.03;;
21647;SDS011;10985;54.182;7.890;2023-03-01T06:02:56;8.93;;;7.68;;
21647;SDS011;10985;54.182;7.890;2023-03-01T06:05:22;7.28;;;6.68;;
21647;SDS011;10985;54.182;7.890;2023-03-01T06:07:49;9.45;;;7.20;;
21647;SDS011;10985;54.182;7.890;2023-03-01T06:10:15;8.38;;;7.68;;
21647;SDS011;10985;54.182;7.890;2023-03-01T06:12:41;9.30;;;7.90;;
21647;SDS011;10985;54.182;7.890;2023-03-01T06:15:07;7.95;;;7.22;;
21647;SDS011;10985;54.182;7.890;2023-03-01T06:17:35;8.40;;;7.70;;
21647;SDS011;10985;54.182;7.890;2023-03-01T06:20:04;9.57;;;8.10;;
21647;SDS011;10985;54.182;7.890;2023-03-01T06:22:31;9.18;;;8.27;;
21647;SDS011;10985;54.182;7.890;2023-03-01T06:24:57;11.13;;;8.43;;
21647;SDS011;10985;54.182;7.890;2023-03-01T06:27:22;13.35;;;10.57;;
21647;SDS011;10985;54.182;7.890;2023-03-01T06:29:47;8.93;;;8.07;;
21647;SDS011;10985;54.182;7.890;2023-03-01T06:32:13;9.50;;;7.95;;
21647;SDS011;10985;54.182;7.890;2023-03-01T06:34:39;9.10;;;7.93;;
21647;SDS011;10985;54.182;7.890;2023-03-01T06:37:05;9.23;;;8.32;;
21647;SDS011;10985;54.182;7.890;2023-03-01T06:39:32;9.57;;;7.55;;
21647;SDS011;10985;54.182;7.890;2023-03-01T06:41:57;8.80;;;8.02;;
21647;SDS011;10985;54.182;7.890;2023-03-01T06:44:23;13.90;;;9.07;;
21647;SDS011;10985;54.182;7.890;2023-03-01T06:46:49;7.82;;;7.13;;
21647;SDS011;10985;54.182;7.890;2023-03-01T06:49:15;8.23;;;7.38;;
21647;SDS011;10985;54.182;7.890;2023-03-01T06:51:42;11.35;;;7.55;;
21647;SDS011;10985;54.182;7.890;2023-03-01T06:54:08;9.60;;;6.93;;
21647;SDS011;10985;54.182;7.890;2023-03-01T06:56:34;7.10;;;6.40;;
21647;SDS011;10985;54.182;7.890;2023-03-01T06:59:00;10.00;;;7.47;;
21647;SDS011;10985;54.182;7.890;2023-03-01T07:01:25;7.43;;;6.72;;
21647;SDS011;10985;54.182;7.890;2023-03-01T07:03:51;8.88;;;6.03;;
21647;SDS011;10985;54.182;7.890;2023-03-01T07:06:17;12.15;;;7.25;;
21647;SDS011;10985;54.182;7.890;2023-03-01T07:08:42;6.97;;;6.45;;
21647;SDS011;10985;54.182;7.890;2023-03-01T07:11:08;7.57;;;6.45;;
21647;SDS011;10985;54.182;7.890;2023-03-01T07:13:33;7.05;;;4.78;;
21647;SDS011;10985;54.182;7.890;2023-03-01T07:15:59;4.72;;;4.32;;
21647;SDS011;10985;54.182;7.890;2023-03-01T07:18:24;4.68;;;4.28;;
21647;SDS011;10985;54.182;7.890;2023-03-01T07:20:50;6.40;;;4.20;;
21647;SDS011;10985;54.182;7.890;2023-03-01T07:23:15;5.50;;;4.72;;
21647;SDS011;10985;54.182;7.890;2023-03-01T07:25:41;5.65;;;4.55;;
21647;SDS011;10985;54.182;7.890;2023-03-01T07:28:06;4.43;;;4.07;;
21647;SDS011;10985;54.182;7.890;2023-03-01T07:30:32;3.63;;;3.33;;
21647;SDS011;10985;54.182;7.890;2023-03-01T07:32:57;4.63;;;3.00;;
21647;SDS011;10985;54.182;7.890;2023-03-01T07:35:24;3.58;;;2.80;;
21647;SDS011;10985;54.182;7.890;2023-03-01T07:37:51;4.47;;;2.80;;
21647;SDS011;10985;54.182;7.890;2023-03-01T07:40:17;4.95;;;3.15;;
21647;SDS011;10985;54.182;7.890;2023-03-01T07:42:42;4.63;;;2.83;;
21647;SDS011;10985;54.182;7.890;2023-03-01T07:45:08;5.35;;;3.22;;
21647;SDS011;10985;54.182;7.890;2023-03-01T07:47:34;3.10;;;2.80;;
21647;SDS011;10985;54.182;7.890;2023-03-01T07:50:00;3.58;;;2.75;;
21647;SDS011;10985;54.182;7.890;2023-03-01T07:52:26;3.13;;;2.88;;
21647;SDS011;10985;54.182;7.890;2023-03-01T07:54:52;2.70;;;2.58;;
21647;SDS011;10985;54.182;7.890;2023-03-01T07:57:17;2.83;;;2.63;;
21647;SDS011;10985;54.182;7.890;2023-03-01T07:59:43;4.43;;;2.72;;
21647;SDS011;10985;54.182;7.890;2023-03-01T08:02:09;5.70;;;2.58;;
21647;SDS011;10985;54.182;7.890;2023-03-01T08:04:35;3.08;;;2.60;;
21647;SDS011;10985;54.182;7.890;2023-03-01T08:07:01;2.85;;;2.53;;
21647;SDS011;10985;54.182;7.890;2023-03-01T08:09:29;4.70;;;3.08;;
21647;SDS011;10985;54.182;7.890;2023-03-01T08:11:55;3.33;;;2.55;;
21647;SDS011;10985;54.182;7.890;2023-03-01T08:14:24;6.18;;;2.63;;
21647;SDS011;10985;54.182;7.890;2023-03-01T08:16:49;2.33;;;2.20;;
21647;SDS011;10985;54.182;7.890;2023-03-01T08:19:15;2.10;;;2.00;;
21647;SDS011;10985;54.182;7.890;2023-03-01T08:21:41;3.10;;;2.20;;
21647;SDS011;10985;54.182;7.890;2023-03-01T08:24:06;4.15;;;2.50;;
21647;SDS011;10985;54.182;7.890;2023-03-01T08:26:32;6.53;;;2.50;;
21647;SDS011;10985;54.182;7.890;2023-03-01T08:28:59;3.40;;;1.95;;
21647;SDS011;10985;54.182;7.890;2023-03-01T08:31:26;2.35;;;2.20;;
21647;SDS011;10985;54.182;7.890;2023-03-01T08:33:55;2.80;;;2.30;;
21647;SDS011;10985;54.182;7.890;2023-03-01T08:36:23;2.08;;;1.98;;
21647;SDS011;10985;54.182;7.890;2023-03-01T08:38:50;2.38;;;1.98;;
21647;SDS011;10985;54.182;7.890;2023-03-01T08:41:15;2.47;;;2.20;;
21647;SDS011;10985;54.182;7.890;2023-03-01T08:43:41;3.05;;;2.22;;
21647;SDS011;10985;54.182;7.890;2023-03-01T08:46:07;2.17;;;1.95;;
21647;SDS011;10985;54.182;7.890;2023-03-01T08:48:33;2.85;;;2.10;;
21647;SDS011;10985;54.182;7.890;2023-03-01T08:51:10;2.83;;;2.10;;
21647;SDS011;10985;54.182;7.890;2023-03-01T08:53:43;3.05;;;1.85;;
21647;SDS011;10985;54.182;7.890;2023-03-01T08:56:09;2.38;;;2.03;;
21647;SDS011;10985;54.182;7.890;2023-03-01T08:58:35;3.22;;;2.00;;
21647;SDS011;10985;54.182;7.890;2023-03-01T09:01:06;3.85;;;2.03;;
21647;SDS011;10985;54.182;7.890;2023-03-01T09:03:33;2.00;;;1.80;;
21647;SDS011;10985;54.182;7.890;2023-03-01T09:06:02;2.72;;;1.67;;
21647;SDS011;10985;54.182;7.890;2023-03-01T09:08:29;1.95;;;1.70;;
21647;SDS011;10985;54.182;7.890;2023-03-01T09:10:55;3.97;;;2.08;;
21647;SDS011;10985;54.182;7.890;2023-03-01T09:13:21;2.88;;;2.00;;
21647;SDS011;10985;54.182;7.890;2023-03-01T09:15:49;2.60;;;1.90;;
21647;SDS011;10985;54.182;7.890;2023-03-01T09:18:15;7.10;;;2.22;;
21647;SDS011;10985;54.182;7.890;2023-03-01T09:20:40;4.85;;;2.00;;
21647;SDS011;10985;54.182;7.890;2023-03-01T09:23:06;2.67;;;1.70;;
21647;SDS011;10985;54.182;7.890;2023-03-01T09:25:33;3.08;;;1.45;;
21647;SDS011;10985;54.182;7.890;2023-03-01T09:27:59;1.90;;;1.48;;
21647;SDS011;10985;54.182;7.890;2023-03-01T09:30:25;1.52;;;1.42;;
21647;SDS011;10985;54.182;7.890;2023-03-01T09:32:50;3.70;;;1.90;;
21647;SDS011;10985;54.182;7.890;2023-03-01T09:35:16;1.70;;;1.60;;
21647;SDS011;10985;54.182;7.890;2023-03-01T09:37:41;3.10;;;1.65;;
21647;SDS011;10985;54.182;7.890;2023-03-01T09:40:14;5.28;;;1.60;;
21647;SDS011;10985;54.182;7.890;2023-03-01T09:42:52;2.35;;;1.80;;
21647;SDS011;10985;54.182;7.890;2023-03-01T09:45:33;2.05;;;1.48;;
21647;SDS011;10985;54.182;7.890;2023-03-01T09:48:01;1.90;;;1.80;;
21647;SDS011;10985;54.182;7.890;2023-03-01T09:50:32;3.03;;;2.05;;
21647;SDS011;10985;54.182;7.890;2023-03-01T09:53:10;2.42;;;1.60;;
21647;SDS011;10985;54.182;7.890;2023-03-01T09:58:51;2.83;;;1.60;;
21647;SDS011;10985;54.182;7.890;2023-03-01T10:01:38;1.92;;;1.77;;
21647;SDS011;10985;54.182;7.890;2023-03-01T10:04:24;1.90;;;1.80;;
21647;SDS011;10985;54.182;7.890;2023-03-01T10:06:58;2.80;;;1.52;;
21647;SDS011;10985;54.182;7.890;2023-03-01T10:09:27;1.60;;;1.50;;
21647;SDS011;10985;54.182;7.890;2023-03-01T10:11:57;3.08;;;2.00;;
21647;SDS011;10985;54.182;7.890;2023-03-01T10:14:30;2.78;;;1.63;;
21647;SDS011;10985;54.182;7.890;2023-03-01T10:17:07;2.05;;;1.70;;
21647;SDS011;10985;54.182;7.890;2023-03-01T10:19:45;2.10;;;1.90;;
21647;SDS011;10985;54.182;7.890;2023-03-01T10:22:18;3.30;;;1.65;;
21647;SDS011;10985;54.182;7.890;2023-03-01T10:24:46;1.92;;;1.70;;
21647;SDS011;10985;54.182;7.890;2023-03-01T10:27:21;2.25;;;1.40;;
21647;SDS011;10985;54.182;7.890;2023-03-01T10:32:19;2.97;;;1.85;;
21647;SDS011;10985;54.182;7.890;2023-03-01T10:34:46;2.20;;;1.80;;
21647;SDS011;10985;54.182;7.890;2023-03-01T10:37:14;2.42;;;1.85;;
21647;SDS011;10985;54.182;7.890;2023-03-01T10:39:56;4.10;;;1.70;;
21647;SDS011;10985;54.182;7.890;2023-03-01T10:42:30;2.28;;;1.70;;
21647;SDS011;10985;54.182;7.890;2023-03-01T10:45:46;2.03;;;1.35;;
21647;SDS011;10985;54.182;7.890;2023-03-01T10:48:00;1.58;;;1.48;;
21647;SDS011;10985;54.182;7.890;2023-03-01T10:51:04;4.43;;;1.70;;
21647;SDS011;10985;54.182;7.890;2023-03-01T10:53:33;3.75;;;1.52;;
21647;SDS011;10985;54.182;7.890;2023-03-01T10:56:08;2.08;;;1.65;;
21647;SDS011;10985;54.182;7.890;2023-03-01T10:58:39;2.95;;;1.30;;
21647;SDS011;10985;54.182;7.890;2023-03-01T11:03:41;1.48;;;1.30;;
21647;SDS011;10985;54.182;7.890;2023-03-01T11:08:39;2.83;;;1.45;;
21647;SDS011;10985;54.182;7.890;2023-03-01T11:14:06;3.38;;;1.50;;
21647;SDS011;10985;54.182;7.890;2023-03-01T11:16:44;2.75;;;1.40;;
21647;SDS011;10985;54.182;7.890;2023-03-01T11:21:41;1.45;;;1.17;;
21647;SDS011;10985;54.182;7.890;2023-03-01T11:24:32;8.02;;;1.27;;
21647;SDS011;10985;54.182;7.890;2023-03-01T11:27:16;1.40;;;1.30;;
21647;SDS011;10985;54.182;7.890;2023-03-01T11:32:48;3.30;;;1.63;;
21647;SDS011;10985;54.182;7.890;2023-03-01T11:35:29;1.83;;;1.40;;
21647;SDS011;10985;54.182;7.890;2023-03-01T11:40:31;3.28;;;1.30;;
21647;SDS011;10985;54.182;7.890;2023-03-01T11:43:09;1.42;;;1.33;;
21647;SDS011;10985;54.182;7.890;2023-03-01T11:54:27;4.47;;;1.50;;
21647;SDS011;10985;54.182;7.890;2023-03-01T11:57:04;2.38;;;1.10;;
21647;SDS011;10985;54.182;7.890;2023-03-01T11:59:56;1.45;;;1.17;;
21647;SDS011;10985;54.182;7.890;2023-03-01T12:02:46;3.45;;;1.30;;
21647;SDS011;10985;54.182;7.890;2023-03-01T12:05:37;2.95;;;1.05;;
21647;SDS011;10985;54.182;7.890;2023-03-01T12:17:06;2.63;;;1.20;;
21647;SDS011;10985;54.182;7.890;2023-03-01T12:19:39;3.55;;;1.25;;
21647;SDS011;10985;54.182;7.890;2023-03-01T12:22:29;1.70;;;1.10;;
21647;SDS011;10985;54.182;7.890;2023-03-01T12:31:06;1.75;;;1.10;;
21647;SDS011;10985;54.182;7.890;2023-03-01T12:33:47;2.35;;;0.80;;
21647;SDS011;10985;54.182;7.890;2023-03-01T12:36:30;1.45;;;1.08;;
21647;SDS011;10985;54.182;7.890;2023-03-01T12:39:32;3.50;;;1.20;;
21647;SDS011;10985;54.182;7.890;2023-03-01T12:45:04;5.35;;;1.20;;
21647;SDS011;10985;54.182;7.890;2023-03-01T12:47:57;8.60;;;1.60;;
21647;SDS011;10985;54.182;7.890;2023-03-01T12:50:48;5.13;;;1.55;;
21647;SDS011;10985;54.182;7.890;2023-03-01T12:53:22;2.67;;;1.55;;
21647;SDS011;10985;54.182;7.890;2023-03-01T12:55:50;3.03;;;1.35;;
21647;SDS011;10985;54.182;7.890;2023-03-01T12:58:27;2.15;;;1.60;;
21647;SDS011;10985;54.182;7.890;2023-03-01T13:01:00;2.08;;;1.50;;
21647;SDS011;10985;54.182;7.890;2023-03-01T13:06:34;6.78;;;1.73;;
21647;SDS011;10985;54.182;7.890;2023-03-01T13:09:09;5.18;;;1.40;;
21647;SDS011;10985;54.182;7.890;2023-03-01T13:11:45;1.30;;;1.20;;
21647;SDS011;10985;54.182;7.890;2023-03-01T13:16:45;1.75;;;1.40;;
21647;SDS011;10985;54.182;7.890;2023-03-01T13:21:43;2.45;;;1.80;;
21647;SDS011;10985;54.182;7.890;2023-03-01T13:29:49;5.88;;;3.10;;
21647;SDS011;10985;54.182;7.890;2023-03-01T13:32:32;2.67;;;2.00;;
21647;SDS011;10985;54.182;7.890;2023-03-01T13:35:06;2.05;;;1.88;;
21647;SDS011;10985;54.182;7.890;2023-03-01T13:37:51;4.03;;;1.90;;
21647;SDS011;10985;54.182;7.890;2023-03-01T13:42:50;1.80;;;1.70;;
21647;SDS011;10985;54.182;7.890;2023-03-01T13:45:50;2.15;;;1.80;;
21647;SDS011;10985;54.182;7.890;2023-03-01T13:48:18;3.03;;;1.50;;
21647;SDS011;10985;54.182;7.890;2023-03-01T13:50:53;3.33;;;1.80;;
21647;SDS011;10985;54.182;7.890;2023-03-01T13:53:22;2.90;;;1.70;;
21647;SDS011;10985;54.182;7.890;2023-03-01T13:55:52;4.60;;;1.90;;
21647;SDS011;10985;54.182;7.890;2023-03-01T14:00:56;2.70;;;1.60;;
21647;SDS011;10985;54.182;7.890;2023-03-01T14:03:27;1.95;;;1.75;;
21647;SDS011;10985;54.182;7.890;2023-03-01T14:06:27;2.85;;;1.80;;
21647;SDS011;10985;54.182;7.890;2023-03-01T14:08:48;3.05;;;2.20;;
21647;SDS011;10985;54.182;7.890;2023-03-01T14:11:20;3.00;;;1.80;;
21647;SDS011;10985;54.182;7.890;2023-03-01T14:13:52;3.22;;;1.92;;
21647;SDS011;10985;54.182;7.890;2023-03-01T14:16:23;1.90;;;1.80;;
21647;SDS011;10985;54.182;7.890;2023-03-01T14:21:37;5.47;;;2.35;;
21647;SDS011;10985;54.182;7.890;2023-03-01T14:24:03;1.90;;;1.70;;
21647;SDS011;10985;54.182;7.890;2023-03-01T14:26:37;4.03;;;2.30;;
21647;SDS011;10985;54.182;7.890;2023-03-01T14:29:02;2.72;;;2.50;;
21647;SDS011;10985;54.182;7.890;2023-03-01T14:31:32;2.47;;;2.05;;
21647;SDS011;10985;54.182;7.890;2023-03-01T14:34:01;2.42;;;2.10;;
21647;SDS011;10985;54.182;7.890;2023-03-01T14:36:28;2.97;;;1.85;;
21647;SDS011;10985;54.182;7.890;2023-03-01T14:38:55;4.82;;;2.30;;
21647;SDS011;10985;54.182;7.890;2023-03-01T14:41:24;6.07;;;2.65;;
21647;SDS011;10985;54.182;7.890;2023-03-01T14:43:54;4.00;;;2.53;;
21647;SDS011;10985;54.182;7.890;2023-03-01T14:46:24;4.18;;;2.25;;
21647;SDS011;10985;54.182;7.890;2023-03-01T14:48:56;3.92;;;2.10;;
21647;SDS011;10985;54.182;7.890;2023-03-01T14:51:26;2.45;;;2.25;;
21647;SDS011;10985;54.182;7.890;2023-03-01T14:53:52;5.03;;;2.20;;
21647;SDS011;10985;54.182;7.890;2023-03-01T14:56:18;5.03;;;2.20;;
21647;SDS011;10985;54.182;7.890;2023-03-01T14:58:44;3.20;;;2.40;;
21647;SDS011;10985;54.182;7.890;2023-03-01T15:01:13;3.88;;;2.40;;
21647;SDS011;10985;54.182;7.890;2023-03-01T15:03:42;2.83;;;2.25;;
21647;SDS011;10985;54.182;7.890;2023-03-01T15:06:10;6.88;;;2.22;;
21647;SDS011;10985;54.182;7.890;2023-03-01T15:08:41;4.43;;;2.08;;
21647;SDS011;10985;54.182;7.890;2023-03-01T15:17:03;2.30;;;2.10;;
21647;SDS011;10985;54.182;7.890;2023-03-01T15:19:29;2.58;;;2.38;;
21647;SDS011;10985;54.182;7.890;2023-03-01T15:21:55;4.40;;;2.58;;
21647;SDS011;10985;54.182;7.890;2023-03-01T15:24:24;3.50;;;2.03;;
21647;SDS011;10985;54.182;7.890;2023-03-01T15:26:56;10.20;;;3.17;;
21647;SDS011;10985;54.182;7.890;2023-03-01T15:29:27;4.25;;;2.40;;
21647;SDS011;10985;54.182;7.890;2023-03-01T15:34:32;2.63;;;2.30;;
21647;SDS011;10985;54.182;7.890;2023-03-01T15:37:00;4.03;;;1.90;;
21647;SDS011;10985;54.182;7.890;2023-03-01T15:39:48;10.07;;;2.15;;
21647;SDS011;10985;54.182;7.890;2023-03-01T15:45:09;3.75;;;2.00;;
21647;SDS011;10985;54.182;7.890;2023-03-01T15:47:49;6.68;;;2.22;;
21647;SDS011;10985;54.182;7.890;2023-03-01T15:50:19;2.30;;;1.85;;
21647;SDS011;10985;54.182;7.890;2023-03-01T15:52:53;4.43;;;2.38;;
21647;SDS011;10985;54.182;7.890;2023-03-01T15:55:23;3.95;;;2.30;;
21647;SDS011;10985;54.182;7.890;2023-03-01T15:58:02;3.60;;;2.25;;
21647;SDS011;10985;54.182;7.890;2023-03-01T16:00:44;2.53;;;2.15;;
21647;SDS011;10985;54.182;7.890;2023-03-01T16:03:10;3.13;;;2.15;;
21647;SDS011;10985;54.182;7.890;2023-03-01T16:05:37;2.55;;;2.13;;
21647;SDS011;10985;54.182;7.890;2023-03-01T16:08:03;4.85;;;2.63;;
21647;SDS011;10985;54.182;7.890;2023-03-01T16:10:30;5.93;;;2.58;;
21647;SDS011;10985;54.182;7.890;2023-03-01T16:12:57;5.82;;;3.00;;
21647;SDS011;10985;54.182;7.890;2023-03-01T16:15:24;5.10;;;3.28;;
21647;SDS011;10985;54.182;7.890;2023-03-01T16:17:58;3.10;;;2.50;;